Washington, OH (43749)

6:32 AM EDT on August 28, 2016 (GMT -0400)
Cambridge,OH | | Change Station

Elev 814 ft 40.02 °N, 81.56 °W | Updated 37 seconds ago

Clear
Clear
68.4 °F
Feels Like 68.4 °F
N
0.0
Wind Variable Wind from NW

Today
High -- | Low -- °F
--% Chance of Precip.
Yesterday
High -- | Low -- °F
Precip. -- in
Pressure 30.16 in
Visibility 5.0 miles
Clouds Clear
Dew Point 66 °F
Humidity 93%
Rainfall 0.00 in
Snow Depth Not available.
6:50 AM 8:03 PM
Waning Crescent, 16% visible
METAR KPHD 280953Z AUTO 00000KT 5SM BR CLR 21/19 A3018 RMK AO2 SLP212 T02060189
Pressure 30.16 in
Visibility 5.0 miles
Clouds Clear
Dew Point 66 °F
Humidity 93%
Rainfall 0.00 in
Snow Depth Not available.
6:50 AM 8:03 PM
Waning Crescent, 16% visible
METAR KPHD 280953Z AUTO 00000KT 5SM BR CLR 21/19 A3018 RMK AO2 SLP212 T02060189

10-Day Weather Forecast

Almanac

Astronomy

Aug. 28, 2016 Rise Set
Actual Time
Civil Twilight
Nautical Twilight
Astronomical Twilight
Moon
Length of Visible Light
Length of Day
Tomorrow will be .
, % of the Moon is Illuminated

Today's Extremes

State Highs State Lows

Community

WunderPhotos

Upload Photos

1,935,541 photos uploaded!

WunderBlog® & News

Nearby

Air Quality

  Air Quality AQ Index Pollutant
Not available.

Snow Depth

Station Depth Elevation

Earthquake Activity

City Distance Mag. Time & Date
Minimum magnitude displayed is 2.5.

Coastal Water Temperatures

Place Temperature

Stations

Nearby Weather Stations

Station Location Temp. Windchill Dew Point Humidity Wind Precip. Elev Updated Type
                   

Watches & Warnings

There are currently no watches in effect.